sensor_id;sensor_type;location;lat;lon;timestamp;pressure;altitude;pressure_sealevel;temperature;humidity
69574;BME280;62840;52.366;5.980;2023-05-19T00:01:51;102702.97;;;9.63;61.17
69574;BME280;62840;52.366;5.980;2023-05-19T00:04:23;102713.63;;;9.63;61.31
69574;BME280;62840;52.366;5.980;2023-05-19T00:07:08;102716.34;;;9.61;61.34
69574;BME280;62840;52.366;5.980;2023-05-19T00:09:50;102706.72;;;9.59;61.41
69574;BME280;62840;52.366;5.980;2023-05-19T00:12:25;102708.59;;;9.57;61.47
69574;BME280;62840;52.366;5.980;2023-05-19T00:15:03;102710.38;;;9.56;61.25
69574;BME280;62840;52.366;5.980;2023-05-19T00:17:38;102706.84;;;9.56;61.42
69574;BME280;62840;52.366;5.980;2023-05-19T00:20:14;102710.47;;;9.55;61.65
69574;BME280;62840;52.366;5.980;2023-05-19T00:22:43;102710.63;;;9.52;61.71
69574;BME280;62840;52.366;5.980;2023-05-19T00:25:15;102710.75;;;9.49;61.90
69574;BME280;62840;52.366;5.980;2023-05-19T00:27:48;102704.63;;;9.47;61.82
69574;BME280;62840;52.366;5.980;2023-05-19T00:30:16;102698.50;;;9.45;61.74
69574;BME280;62840;52.366;5.980;2023-05-19T00:32:48;102695.84;;;9.45;61.88
69574;BME280;62840;52.366;5.980;2023-05-19T00:35:18;102695.16;;;9.41;62.06
69574;BME280;62840;52.366;5.980;2023-05-19T00:37:47;102701.38;;;9.40;62.20
69574;BME280;62840;52.366;5.980;2023-05-19T00:40:17;102688.16;;;9.38;62.13
69574;BME280;62840;52.366;5.980;2023-05-19T00:42:48;102700.53;;;9.39;62.12
69574;BME280;62840;52.366;5.980;2023-05-19T00:45:23;102690.03;;;9.36;62.45
69574;BME280;62840;52.366;5.980;2023-05-19T00:47:52;102689.25;;;9.34;62.37
69574;BME280;62840;52.366;5.980;2023-05-19T00:50:26;102697.41;;;9.31;62.34
69574;BME280;62840;52.366;5.980;2023-05-19T00:52:59;102689.41;;;9.31;62.66
69574;BME280;62840;52.366;5.980;2023-05-19T00:55:30;102690.31;;;9.30;62.64
69574;BME280;62840;52.366;5.980;2023-05-19T00:58:08;102678.84;;;9.28;62.47
69574;BME280;62840;52.366;5.980;2023-05-19T01:00:39;102683.38;;;9.26;62.94
69574;BME280;62840;52.366;5.980;2023-05-19T01:03:07;102679.94;;;9.24;62.84
69574;BME280;62840;52.366;5.980;2023-05-19T01:05:43;102671.16;;;9.22;63.00
69574;BME280;62840;52.366;5.980;2023-05-19T01:08:12;102681.78;;;9.22;63.01
69574;BME280;62840;52.366;5.980;2023-05-19T01:10:56;102683.53;;;9.23;62.87
69574;BME280;62840;52.366;5.980;2023-05-19T01:13:30;102681.78;;;9.22;62.82
69574;BME280;62840;52.366;5.980;2023-05-19T01:16:06;102673.03;;;9.20;63.25
69574;BME280;62840;52.366;5.980;2023-05-19T01:18:44;102674.91;;;9.18;63.04
69574;BME280;62840;52.366;5.980;2023-05-19T01:21:51;102677.63;;;9.16;63.35
69574;BME280;62840;52.366;5.980;2023-05-19T01:25:15;102678.66;;;9.14;63.54
69574;BME280;62840;52.366;5.980;2023-05-19T01:28:29;102673.44;;;9.11;63.59
69574;BME280;62840;52.366;5.980;2023-05-19T01:31:11;102668.28;;;9.08;63.56
69574;BME280;62840;52.366;5.980;2023-05-19T01:33:44;102672.81;;;9.06;63.58
69574;BME280;62840;52.366;5.980;2023-05-19T01:36:16;102672.03;;;9.04;63.50
69574;BME280;62840;52.366;5.980;2023-05-19T01:38:48;102676.50;;;9.03;63.58
69574;BME280;62840;52.366;5.980;2023-05-19T01:41:21;102674.84;;;9.00;63.68
69574;BME280;62840;52.366;5.980;2023-05-19T01:44:04;102674.91;;;8.99;63.69
69574;BME280;62840;52.366;5.980;2023-05-19T01:46:38;102672.34;;;8.97;63.54
69574;BME280;62840;52.366;5.980;2023-05-19T01:49:16;102667.94;;;8.96;63.65
69574;BME280;62840;52.366;5.980;2023-05-19T01:51:48;102672.44;;;8.94;63.59
69574;BME280;62840;52.366;5.980;2023-05-19T01:54:16;102667.28;;;8.91;63.86
69574;BME280;62840;52.366;5.980;2023-05-19T01:56:50;102663.81;;;8.89;63.76
69574;BME280;62840;52.366;5.980;2023-05-19T01:59:39;102665.84;;;8.84;64.18
69574;BME280;62840;52.366;5.980;2023-05-19T02:02:51;102663.41;;;8.79;63.97
69574;BME280;62840;52.366;5.980;2023-05-19T02:05:37;102669.69;;;8.77;64.29
69574;BME280;62840;52.366;5.980;2023-05-19T02:08:23;102664.53;;;8.74;64.08
69574;BME280;62840;52.366;5.980;2023-05-19T02:11:13;102658.47;;;8.70;64.21
69574;BME280;62840;52.366;5.980;2023-05-19T02:13:52;102664.75;;;8.69;64.25
69574;BME280;62840;52.366;5.980;2023-05-19T02:16:30;102662.22;;;8.66;64.41
69574;BME280;62840;52.366;5.980;2023-05-19T02:19:05;102659.47;;;8.68;64.37
69574;BME280;62840;52.366;5.980;2023-05-19T02:21:45;102656.03;;;8.66;64.45
69574;BME280;62840;52.366;5.980;2023-05-19T02:24:19;102656.91;;;8.66;64.56
69574;BME280;62840;52.366;5.980;2023-05-19T02:26:47;102650.69;;;8.66;64.60
69574;BME280;62840;52.366;5.980;2023-05-19T02:29:15;102644.63;;;8.64;64.54
69574;BME280;62840;52.366;5.980;2023-05-19T02:31:49;102645.69;;;8.59;64.37
69574;BME280;62840;52.366;5.980;2023-05-19T02:34:20;102648.47;;;8.56;64.73
69574;BME280;62840;52.366;5.980;2023-05-19T02:36:52;102641.50;;;8.54;64.69
69574;BME280;62840;52.366;5.980;2023-05-19T02:39:18;102644.22;;;8.52;64.71
69574;BME280;62840;52.366;5.980;2023-05-19T02:41:45;102647.81;;;8.51;64.63
69574;BME280;62840;52.366;5.980;2023-05-19T02:44:14;102638.13;;;8.50;64.65
69574;BME280;62840;52.366;5.980;2023-05-19T02:46:42;102640.91;;;8.47;64.41
69574;BME280;62840;52.366;5.980;2023-05-19T02:49:19;102635.72;;;8.44;64.71
69574;BME280;62840;52.366;5.980;2023-05-19T02:51:49;102633.28;;;8.40;64.69
69574;BME280;62840;52.366;5.980;2023-05-19T02:54:19;102640.47;;;8.37;64.71
69574;BME280;62840;52.366;5.980;2023-05-19T02:56:47;102634.41;;;8.34;64.78
69574;BME280;62840;52.366;5.980;2023-05-19T02:59:17;102637.22;;;8.31;64.58
69574;BME280;62840;52.366;5.980;2023-05-19T03:01:46;102634.69;;;8.28;64.67
69574;BME280;62840;52.366;5.980;2023-05-19T03:04:18;102634.81;;;8.25;64.72
69574;BME280;62840;52.366;5.980;2023-05-19T03:06:51;102636.66;;;8.23;64.84
69574;BME280;62840;52.366;5.980;2023-05-19T03:09:19;102638.69;;;8.17;64.77
69574;BME280;62840;52.366;5.980;2023-05-19T03:11:58;102628.19;;;8.14;64.84
69574;BME280;62840;52.366;5.980;2023-05-19T03:17:19;102632.16;;;8.04;64.82
69574;BME280;62840;52.366;5.980;2023-05-19T03:19:56;102630.56;;;8.00;64.86
69574;BME280;62840;52.366;5.980;2023-05-19T03:22:30;102624.53;;;7.96;64.79
69574;BME280;62840;52.366;5.980;2023-05-19T03:25:00;102626.31;;;7.96;64.97
69574;BME280;62840;52.366;5.980;2023-05-19T03:27:33;102625.53;;;7.94;65.05
69574;BME280;62840;52.366;5.980;2023-05-19T03:30:09;102627.41;;;7.92;65.06
69574;BME280;62840;52.366;5.980;2023-05-19T03:32:38;102629.25;;;7.90;65.21
69574;BME280;62840;52.366;5.980;2023-05-19T03:35:07;102630.09;;;7.90;65.21
69574;BME280;62840;52.366;5.980;2023-05-19T03:37:42;102629.25;;;7.90;65.21
69574;BME280;62840;52.366;5.980;2023-05-19T03:40:11;102630.16;;;7.89;65.40
69574;BME280;62840;52.366;5.980;2023-05-19T03:42:44;102634.56;;;7.90;65.13
69574;BME280;62840;52.366;5.980;2023-05-19T03:45:16;102630.16;;;7.89;65.20
69574;BME280;62840;52.366;5.980;2023-05-19T03:47:46;102631.91;;;7.90;65.36
69574;BME280;62840;52.366;5.980;2023-05-19T03:50:18;102634.56;;;7.90;65.39
69574;BME280;62840;52.366;5.980;2023-05-19T03:52:50;102631.97;;;7.88;65.31
69574;BME280;62840;52.366;5.980;2023-05-19T03:55:34;102633.72;;;7.89;65.38
69574;BME280;62840;52.366;5.980;2023-05-19T03:58:10;102638.13;;;7.89;65.51
69574;BME280;62840;52.366;5.980;2023-05-19T04:00:43;102647.03;;;7.88;65.39
69574;BME280;62840;52.366;5.980;2023-05-19T04:03:16;102641.72;;;7.88;65.60
69574;BME280;62840;52.366;5.980;2023-05-19T04:06:00;102639.97;;;7.87;65.68
69574;BME280;62840;52.366;5.980;2023-05-19T04:08:38;102647.03;;;7.88;65.73
69574;BME280;62840;52.366;5.980;2023-05-19T04:11:05;102645.19;;;7.90;65.91
69574;BME280;62840;52.366;5.980;2023-05-19T04:13:33;102644.19;;;7.92;65.79
69574;BME280;62840;52.366;5.980;2023-05-19T04:16:04;102641.47;;;7.94;65.76
69574;BME280;62840;52.366;5.980;2023-05-19T04:18:36;102642.25;;;7.96;65.90
69574;BME280;62840;52.366;5.980;2023-05-19T04:21:14;102642.19;;;7.98;66.17
69574;BME280;62840;52.366;5.980;2023-05-19T04:24:01;102646.50;;;8.00;66.05
69574;BME280;62840;52.366;5.980;2023-05-19T04:26:32;102641.94;;;8.04;66.07
69574;BME280;62840;52.366;5.980;2023-05-19T04:29:06;102643.59;;;8.06;66.20
69574;BME280;62840;52.366;5.980;2023-05-19T04:31:42;102649.72;;;8.08;66.20
69574;BME280;62840;52.366;5.980;2023-05-19T04:34:10;102640.78;;;8.09;66.44
69574;BME280;62840;52.366;5.980;2023-05-19T04:36:42;102646.00;;;8.12;66.22
69574;BME280;62840;52.366;5.980;2023-05-19T04:39:17;102634.38;;;8.15;66.39
69574;BME280;62840;52.366;5.980;2023-05-19T04:41:45;102633.22;;;8.21;66.53
69574;BME280;62840;52.366;5.980;2023-05-19T04:44:13;102638.41;;;8.24;66.30
69574;BME280;62840;52.366;5.980;2023-05-19T04:46:41;102636.56;;;8.26;66.67
69574;BME280;62840;52.366;5.980;2023-05-19T04:49:10;102629.38;;;8.28;66.56
69574;BME280;62840;52.366;5.980;2023-05-19T04:51:41;102629.22;;;8.31;66.66
69574;BME280;62840;52.366;5.980;2023-05-19T04:54:14;102641.47;;;8.35;66.59
69574;BME280;62840;52.366;5.980;2023-05-19T04:56:45;102635.09;;;8.39;67.00
69574;BME280;62840;52.366;5.980;2023-05-19T04:59:18;102634.00;;;8.43;66.66
69574;BME280;62840;52.366;5.980;2023-05-19T05:01:55;102639.03;;;8.49;66.84
69574;BME280;62840;52.366;5.980;2023-05-19T05:04:27;102645.94;;;8.53;66.66
69574;BME280;62840;52.366;5.980;2023-05-19T05:06:59;102643.03;;;8.59;66.99
69574;BME280;62840;52.366;5.980;2023-05-19T05:09:32;102646.34;;;8.65;66.82
69574;BME280;62840;52.366;5.980;2023-05-19T05:12:08;102645.09;;;8.72;66.82
69574;BME280;62840;52.366;5.980;2023-05-19T05:14:35;102648.41;;;8.77;66.98
69574;BME280;62840;52.366;5.980;2023-05-19T05:17:05;102647.34;;;8.81;67.00
69574;BME280;62840;52.366;5.980;2023-05-19T05:19:35;102654.25;;;8.85;67.00
69574;BME280;62840;52.366;5.980;2023-05-19T05:22:12;102643.41;;;8.90;67.34
69574;BME280;62840;52.366;5.980;2023-05-19T05:24:40;102647.59;;;8.95;67.10
69574;BME280;62840;52.366;5.980;2023-05-19T05:27:10;102641.94;;;9.01;67.05
69574;BME280;62840;52.366;5.980;2023-05-19T05:29:43;102645.28;;;9.07;66.94
69574;BME280;62840;52.366;5.980;2023-05-19T05:32:24;102651.19;;;9.13;67.02
69574;BME280;62840;52.366;5.980;2023-05-19T05:34:55;102655.31;;;9.19;66.96
69574;BME280;62840;52.366;5.980;2023-05-19T05:37:39;102655.03;;;9.25;67.17
69574;BME280;62840;52.366;5.980;2023-05-19T05:40:23;102653.03;;;9.30;67.01
69574;BME280;62840;52.366;5.980;2023-05-19T05:43:02;102652.75;;;9.36;66.93
69574;BME280;62840;52.366;5.980;2023-05-19T05:45:30;102647.16;;;9.43;66.92
69574;BME280;62840;52.366;5.980;2023-05-19T05:47:59;102654.03;;;9.47;66.86
69574;BME280;62840;52.366;5.980;2023-05-19T05:50:40;102643.06;;;9.53;66.62
69574;BME280;62840;52.366;5.980;2023-05-19T05:53:17;102640.91;;;9.61;66.56
69574;BME280;62840;52.366;5.980;2023-05-19T05:55:58;102649.53;;;9.66;66.60
69574;BME280;62840;52.366;5.980;2023-05-19T05:58:46;102646.47;;;9.74;66.63
69574;BME280;62840;52.366;5.980;2023-05-19T06:01:22;102639.97;;;9.79;66.56
69574;BME280;62840;52.366;5.980;2023-05-19T06:03:52;102641.56;;;9.83;66.36
69574;BME280;62840;52.366;5.980;2023-05-19T06:06:21;102644.84;;;9.89;66.34
69574;BME280;62840;52.366;5.980;2023-05-19T06:08:49;102644.53;;;9.95;66.25
69574;BME280;62840;52.366;5.980;2023-05-19T06:11:20;102642.47;;;10.00;66.67
69574;BME280;62840;52.366;5.980;2023-05-19T06:13:47;102649.22;;;10.07;66.41
69574;BME280;62840;52.366;5.980;2023-05-19T06:16:21;102650.63;;;10.14;66.13
69574;BME280;62840;52.366;5.980;2023-05-19T06:18:56;102657.38;;;10.21;66.03
69574;BME280;62840;52.366;5.980;2023-05-19T06:21:27;102657.03;;;10.28;65.99
69574;BME280;62840;52.366;5.980;2023-05-19T06:24:05;102653.09;;;10.35;65.78
69574;BME280;62840;52.366;5.980;2023-05-19T06:26:36;102645.56;;;10.43;65.69
69574;BME280;62840;52.366;5.980;2023-05-19T06:29:03;102651.44;;;10.50;65.63
69574;BME280;62840;52.366;5.980;2023-05-19T06:31:28;102644.75;;;10.58;65.55
69574;BME280;62840;52.366;5.980;2023-05-19T06:34:09;102647.88;;;10.66;65.26
69574;BME280;62840;52.366;5.980;2023-05-19T06:36:43;102656.31;;;10.75;65.27
69574;BME280;62840;52.366;5.980;2023-05-19T06:39:19;102656.00;;;10.81;65.30
69574;BME280;62840;52.366;5.980;2023-05-19T06:42:04;102651.22;;;10.87;65.18
69574;BME280;62840;52.366;5.980;2023-05-19T06:44:35;102659.81;;;10.93;64.84
69574;BME280;62840;52.366;5.980;2023-05-19T06:47:04;102647.78;;;11.01;64.76
69574;BME280;62840;52.366;5.980;2023-05-19T06:49:36;102646.41;;;11.10;64.69
69574;BME280;62840;52.366;5.980;2023-05-19T06:52:04;102646.91;;;11.17;64.78
69574;BME280;62840;52.366;5.980;2023-05-19T06:54:36;102650.03;;;11.25;64.55
69574;BME280;62840;52.366;5.980;2023-05-19T06:57:24;102651.22;;;11.35;64.25
69574;BME280;62840;52.366;5.980;2023-05-19T06:59:52;102652.59;;;11.42;64.22
69574;BME280;62840;52.366;5.980;2023-05-19T07:02:22;102648.59;;;11.49;64.22
69574;BME280;62840;52.366;5.980;2023-05-19T07:04:56;102661.47;;;11.59;64.10
69574;BME280;62840;52.366;5.980;2023-05-19T07:07:48;102657.38;;;11.67;63.89
69574;BME280;62840;52.366;5.980;2023-05-19T07:10:26;102654.25;;;11.75;63.63
69574;BME280;62840;52.366;5.980;2023-05-19T07:12:58;102650.28;;;11.82;63.25
69574;BME280;62840;52.366;5.980;2023-05-19T07:15:27;102653.38;;;11.90;63.23
69574;BME280;62840;52.366;5.980;2023-05-19T07:18:04;102651.06;;;11.99;63.01
69574;BME280;62840;52.366;5.980;2023-05-19T07:20:57;102654.25;;;12.05;62.89
69574;BME280;62840;52.366;5.980;2023-05-19T07:23:30;102653.81;;;12.13;62.63
69574;BME280;62840;52.366;5.980;2023-05-19T07:26:01;102658.75;;;12.19;62.90
69574;BME280;62840;52.366;5.980;2023-05-19T07:28:36;102658.41;;;12.25;62.85
69574;BME280;62840;52.366;5.980;2023-05-19T07:31:07;102655.38;;;12.31;62.52
69574;BME280;62840;52.366;5.980;2023-05-19T07:33:35;102654.13;;;12.37;62.49
69574;BME280;62840;52.366;5.980;2023-05-19T07:36:06;102656.44;;;12.43;62.14
69574;BME280;62840;52.366;5.980;2023-05-19T07:38:42;102651.66;;;12.48;62.09
69574;BME280;62840;52.366;5.980;2023-05-19T07:41:17;102660.16;;;12.55;61.92
69574;BME280;62840;52.366;5.980;2023-05-19T07:43:54;102653.75;;;12.58;61.67
69574;BME280;62840;52.366;5.980;2023-05-19T07:46:23;102656.19;;;12.62;61.56
69574;BME280;62840;52.366;5.980;2023-05-19T07:48:58;102658.66;;;12.65;61.48
69574;BME280;62840;52.366;5.980;2023-05-19T07:51:25;102658.44;;;12.68;61.18
69574;BME280;62840;52.366;5.980;2023-05-19T07:53:53;102652.94;;;12.71;61.39
69574;BME280;62840;52.366;5.980;2023-05-19T07:56:24;102651.75;;;12.75;61.30
69574;BME280;62840;52.366;5.980;2023-05-19T07:59:05;102655.03;;;12.81;60.98
69574;BME280;62840;52.366;5.980;2023-05-19T08:01:35;102645.84;;;12.85;60.99
69574;BME280;62840;52.366;5.980;2023-05-19T08:04:07;102650.03;;;12.89;60.72
69574;BME280;62840;52.366;5.980;2023-05-19T08:06:34;102650.78;;;12.91;60.77
69574;BME280;62840;52.366;5.980;2023-05-19T08:09:09;102649.72;;;12.93;60.82
69574;BME280;62840;52.366;5.980;2023-05-19T08:11:43;102641.31;;;13.00;60.92
69574;BME280;62840;52.366;5.980;2023-05-19T08:14:12;102639.09;;;13.06;60.43
69574;BME280;62840;52.366;5.980;2023-05-19T08:17:00;102632.06;;;13.18;60.76
69574;BME280;62840;52.366;5.980;2023-05-19T08:19:30;102634.06;;;13.29;60.45
69574;BME280;62840;52.366;5.980;2023-05-19T08:22:15;102626.16;;;13.40;60.31
69574;BME280;62840;52.366;5.980;2023-05-19T08:24:48;102621.94;;;13.50;60.36
69574;BME280;62840;52.366;5.980;2023-05-19T08:27:20;102623.38;;;13.56;60.01
69574;BME280;62840;52.366;5.980;2023-05-19T08:29:52;102628.41;;;13.61;59.50
69574;BME280;62840;52.366;5.980;2023-05-19T08:32:22;102620.91;;;13.66;59.38
69574;BME280;62840;52.366;5.980;2023-05-19T08:35:03;102613.22;;;13.74;59.48
69574;BME280;62840;52.366;5.980;2023-05-19T08:37:39;102617.00;;;13.84;58.99
69574;BME280;62840;52.366;5.980;2023-05-19T08:40:11;102621.75;;;13.93;58.78
69574;BME280;62840;52.366;5.980;2023-05-19T08:42:47;102609.84;;;13.97;58.12
69574;BME280;62840;52.366;5.980;2023-05-19T08:45:20;102608.75;;;14.00;58.16
69574;BME280;62840;52.366;5.980;2023-05-19T08:47:48;102605.97;;;14.02;57.96
69574;BME280;62840;52.366;5.980;2023-05-19T08:50:27;102611.13;;;14.05;58.24
69574;BME280;62840;52.366;5.980;2023-05-19T08:53:11;102607.28;;;14.09;57.50
69574;BME280;62840;52.366;5.980;2023-05-19T08:55:53;102599.75;;;14.14;57.22
69574;BME280;62840;52.366;5.980;2023-05-19T08:58:31;102595.66;;;14.21;56.49
69574;BME280;62840;52.366;5.980;2023-05-19T09:01:06;102587.94;;;14.29;56.55
69574;BME280;62840;52.366;5.980;2023-05-19T09:03:46;102598.03;;;14.38;56.36
69574;BME280;62840;52.366;5.980;2023-05-19T09:06:14;102589.56;;;14.45;56.49
69574;BME280;62840;52.366;5.980;2023-05-19T09:08:41;102593.50;;;14.52;56.34
69574;BME280;62840;52.366;5.980;2023-05-19T09:11:29;102594.78;;;14.59;55.52
69574;BME280;62840;52.366;5.980;2023-05-19T09:14:06;102593.06;;;14.71;54.82
69574;BME280;62840;52.366;5.980;2023-05-19T09:16:36;102597.16;;;14.76;54.48
69574;BME280;62840;52.366;5.980;2023-05-19T09:19:11;102586.81;;;14.83;54.63
69574;BME280;62840;52.366;5.980;2023-05-19T09:21:39;102581.09;;;14.88;54.08
69574;BME280;62840;52.366;5.980;2023-05-19T09:24:07;102579.88;;;14.92;53.62
69574;BME280;62840;52.366;5.980;2023-05-19T09:26:41;102572.47;;;14.95;53.46
69574;BME280;62840;52.366;5.980;2023-05-19T09:29:25;102571.38;;;14.98;52.97
69574;BME280;62840;52.366;5.980;2023-05-19T09:31:55;102572.13;;;15.00;53.27
69574;BME280;62840;52.366;5.980;2023-05-19T09:34:21;102563.97;;;15.01;53.26
69574;BME280;62840;52.366;5.980;2023-05-19T09:36:59;102566.53;;;15.03;53.02
69574;BME280;62840;52.366;5.980;2023-05-19T09:39:27;102560.09;;;15.06;52.37
69574;BME280;62840;52.366;5.980;2023-05-19T09:41:57;102564.38;;;15.08;52.78
69574;BME280;62840;52.366;5.980;2023-05-19T09:44:26;102564.13;;;15.11;52.30
69574;BME280;62840;52.366;5.980;2023-05-19T09:47:08;102568.81;;;15.20;52.26
69574;BME280;62840;52.366;5.980;2023-05-19T09:49:37;102570.06;;;15.28;51.18
69574;BME280;62840;52.366;5.980;2023-05-19T09:52:18;102572.31;;;15.34;51.24
69574;BME280;62840;52.366;5.980;2023-05-19T09:54:48;102567.41;;;15.39;51.14
69574;BME280;62840;52.366;5.980;2023-05-19T09:57:19;102568.91;;;15.43;51.17
69574;BME280;62840;52.366;5.980;2023-05-19T09:59:53;102565.88;;;15.48;50.85
69574;BME280;62840;52.366;5.980;2023-05-19T10:02:20;102569.94;;;15.53;51.35
69574;BME280;62840;52.366;5.980;2023-05-19T10:04:53;102569.44;;;15.59;50.86
69574;BME280;62840;52.366;5.980;2023-05-19T10:07:20;102561.91;;;15.64;50.49
69574;BME280;62840;52.366;5.980;2023-05-19T10:09:56;102557.13;;;15.68;50.76
69574;BME280;62840;52.366;5.980;2023-05-19T10:12:29;102556.78;;;15.73;50.32
69574;BME280;62840;52.366;5.980;2023-05-19T10:15:09;102553.88;;;15.76;50.34
69574;BME280;62840;52.366;5.980;2023-05-19T10:17:40;102557.31;;;15.78;49.80
69574;BME280;62840;52.366;5.980;2023-05-19T10:20:17;102551.69;;;15.81;49.57
69574;BME280;62840;52.366;5.980;2023-05-19T10:22:45;102548.75;;;15.84;49.90
69574;BME280;62840;52.366;5.980;2023-05-19T10:25:13;102543.91;;;15.89;49.43
69574;BME280;62840;52.366;5.980;2023-05-19T10:27:45;102538.00;;;15.95;49.45
69574;BME280;62840;52.366;5.980;2023-05-19T10:30:27;102528.72;;;15.99;49.09
69574;BME280;62840;52.366;5.980;2023-05-19T10:33:02;102532.16;;;16.01;49.40
69574;BME280;62840;52.366;5.980;2023-05-19T10:35:47;102532.41;;;16.10;48.85
69574;BME280;62840;52.366;5.980;2023-05-19T10:38:40;102528.16;;;16.18;48.71
69574;BME280;62840;52.366;5.980;2023-05-19T10:41:22;102527.63;;;16.24;48.65
69574;BME280;62840;52.366;5.980;2023-05-19T10:43:57;102511.09;;;16.29;48.88
69574;BME280;62840;52.366;5.980;2023-05-19T10:46:36;102517.72;;;16.36;48.84
69574;BME280;62840;52.366;5.980;2023-05-19T10:49:16;102526.28;;;16.41;48.32
69574;BME280;62840;52.366;5.980;2023-05-19T10:51:58;102516.00;;;16.46;47.52
69574;BME280;62840;52.366;5.980;2023-05-19T10:54:42;102515.75;;;16.50;47.18
69574;BME280;62840;52.366;5.980;2023-05-19T10:57:13;102517.34;;;16.52;47.61
69574;BME280;62840;52.366;5.980;2023-05-19T10:59:44;102511.59;;;16.57;47.56
69574;BME280;62840;52.366;5.980;2023-05-19T11:02:39;102522.09;;;16.60;46.69
69574;BME280;62840;52.366;5.980;2023-05-19T11:05:15;102520.13;;;16.62;46.96
69574;BME280;62840;52.366;5.980;2023-05-19T11:07:43;102514.47;;;16.65;47.19
69574;BME280;62840;52.366;5.980;2023-05-19T11:10:27;102518.66;;;16.69;46.78
69574;BME280;62840;52.366;5.980;2023-05-19T11:13:20;102520.38;;;16.70;46.13
69574;BME280;62840;52.366;5.980;2023-05-19T11:15:46;102517.41;;;16.73;46.26
69574;BME280;62840;52.366;5.980;2023-05-19T11:18:22;102518.03;;;16.77;46.53
69574;BME280;62840;52.366;5.980;2023-05-19T11:20:56;102514.22;;;16.79;46.29
69574;BME280;62840;52.366;5.980;2023-05-19T11:23:33;102513.16;;;16.82;45.98
69574;BME280;62840;52.366;5.980;2023-05-19T11:26:06;102521.81;;;16.85;45.63
69574;BME280;62840;52.366;5.980;2023-05-19T11:28:37;102503.69;;;16.87;45.60
69574;BME280;62840;52.366;5.980;2023-05-19T11:31:05;102500.00;;;16.88;45.54
69574;BME280;62840;52.366;5.980;2023-05-19T11:33:39;102510.53;;;16.92;46.16
69574;BME280;62840;52.366;5.980;2023-05-19T11:36:09;102504.03;;;16.94;45.34
69574;BME280;62840;52.366;5.980;2023-05-19T11:38:38;102502.91;;;16.97;45.52
69574;BME280;62840;52.366;5.980;2023-05-19T11:41:08;102490.16;;;16.99;45.48
69574;BME280;62840;52.366;5.980;2023-05-19T11:43:35;102498.75;;;17.04;45.10
69574;BME280;62840;52.366;5.980;2023-05-19T11:46:09;102498.47;;;17.07;45.08
69574;BME280;62840;52.366;5.980;2023-05-19T11:48:45;102492.06;;;17.08;44.86
69574;BME280;62840;52.366;5.980;2023-05-19T11:51:16;102491.84;;;17.11;44.84
69574;BME280;62840;52.366;5.980;2023-05-19T11:53:48;102483.47;;;17.14;45.15
69574;BME280;62840;52.366;5.980;2023-05-19T11:59:06;102493.25;;;17.26;45.33
69574;BME280;62840;52.366;5.980;2023-05-19T12:01:33;102494.66;;;17.30;45.02
69574;BME280;62840;52.366;5.980;2023-05-19T12:04:06;102485.34;;;17.35;44.89
69574;BME280;62840;52.366;5.980;2023-05-19T12:06:40;102485.09;;;17.38;44.97
69574;BME280;62840;52.366;5.980;2023-05-19T12:09:13;102489.38;;;17.40;45.15
69574;BME280;62840;52.366;5.980;2023-05-19T12:11:40;102486.28;;;17.45;45.06
69574;BME280;62840;52.366;5.980;2023-05-19T12:14:09;102478.91;;;17.47;44.35
69574;BME280;62840;52.366;5.980;2023-05-19T12:16:38;102488.56;;;17.49;44.49
69574;BME280;62840;52.366;5.980;2023-05-19T12:19:14;102482.91;;;17.52;44.61
69574;BME280;62840;52.366;5.980;2023-05-19T12:21:43;102466.31;;;17.57;44.17
69574;BME280;62840;52.366;5.980;2023-05-19T12:24:19;102474.00;;;17.62;44.28
69574;BME280;62840;52.366;5.980;2023-05-19T12:26:48;102469.94;;;17.67;44.33
69574;BME280;62840;52.366;5.980;2023-05-19T12:29:14;102476.50;;;17.75;44.60
69574;BME280;62840;52.366;5.980;2023-05-19T12:31:52;102478.84;;;17.79;44.06
69574;BME280;62840;52.366;5.980;2023-05-19T12:34:26;102484.81;;;17.83;43.89
69574;BME280;62840;52.366;5.980;2023-05-19T12:36:53;102475.19;;;17.90;43.05
69574;BME280;62840;52.366;5.980;2023-05-19T12:39:20;102470.13;;;17.97;42.93
69574;BME280;62840;52.366;5.980;2023-05-19T12:41:50;102467.72;;;18.03;42.70
69574;BME280;62840;52.366;5.980;2023-05-19T12:44:28;102458.22;;;18.09;43.39
69574;BME280;62840;52.366;5.980;2023-05-19T12:46:56;102460.25;;;18.17;43.18
69574;BME280;62840;52.366;5.980;2023-05-19T12:49:23;102462.53;;;18.21;42.73
69574;BME280;62840;52.366;5.980;2023-05-19T12:51:53;102447.91;;;18.24;42.49
69574;BME280;62840;52.366;5.980;2023-05-19T12:54:19;102455.28;;;18.22;41.91
69574;BME280;62840;52.366;5.980;2023-05-19T12:56:51;102451.13;;;18.18;42.29
69574;BME280;62840;52.366;5.980;2023-05-19T12:59:33;102438.34;;;18.20;42.20
69574;BME280;62840;52.366;5.980;2023-05-19T13:02:02;102437.09;;;18.24;42.40
69574;BME280;62840;52.366;5.980;2023-05-19T13:04:34;102445.63;;;18.29;42.57
69574;BME280;62840;52.366;5.980;2023-05-19T13:07:04;102440.66;;;18.34;42.48
69574;BME280;62840;52.366;5.980;2023-05-19T13:09:39;102443.22;;;18.35;42.49
69574;BME280;62840;52.366;5.980;2023-05-19T13:12:13;102428.16;;;18.33;42.59
69574;BME280;62840;52.366;5.980;2023-05-19T13:14:43;102433.56;;;18.33;42.71
69574;BME280;62840;52.366;5.980;2023-05-19T13:17:13;102430.44;;;18.38;42.40
69574;BME280;62840;52.366;5.980;2023-05-19T13:19:42;102436.44;;;18.41;42.67
69574;BME280;62840;52.366;5.980;2023-05-19T13:22:10;102430.44;;;18.47;42.41
69574;BME280;62840;52.366;5.980;2023-05-19T13:24:42;102431.88;;;18.51;42.14
69574;BME280;62840;52.366;5.980;2023-05-19T13:27:11;102427.59;;;18.59;41.90
69574;BME280;62840;52.366;5.980;2023-05-19T13:29:44;102423.63;;;18.63;41.77
69574;BME280;62840;52.366;5.980;2023-05-19T13:32:14;102427.59;;;18.59;42.04
69574;BME280;62840;52.366;5.980;2023-05-19T13:34:45;102426.47;;;18.51;41.58
69574;BME280;62840;52.366;5.980;2023-05-19T13:37:14;102422.75;;;18.43;41.71